Bookmark and Share
Track history (hours):
 

Bright Ocean

Last reported at 2014-Mar-29 14:17 UTC. Time now 2014-Apr-24 04:28 UTC.
Position N 29°21' W 094°45'.
Warning: this ship's position is 25 days out of date.

Length 178 m; draft 6.8 m.

Type: Cargo ship. MMSI: 373816000.

NotesDate/timePositionNaut miles runAvg speedWind from/ knotsBaromVisibWave heightAir tempDewpointWater temp
2014-Mar-29 14:17N 29°21' W 094°45'911.8
2014-Mar-29 13:33N 29°28' W 094°51'1010.3
2014-Mar-29 12:33N 29°36' W 094°57'9 8.5
2014-Mar-29 11:33N 29°44' W 095°02'6 5.6
2014-Mar-29 10:31N 29°44' W 095°08'5 4.9
2014-Mar-29 09:33N 29°43' W 095°14'3 1.0
2014-Mar-29 06:05N 29°45' W 095°17'0 0.0
2014-Mar-29 00:32N 29°45' W 095°17'0 0.0
2014-Mar-28 23:26N 29°45' W 095°17'0 0.0
2014-Mar-28 22:32N 29°45' W 095°17'0 0.0
2014-Mar-28 21:32N 29°45' W 095°17'0 0.0
2014-Mar-28 20:32N 29°45' W 095°17'0 0.0
2014-Mar-28 19:26N 29°45' W 095°17'0 0.0
2014-Mar-28 17:26N 29°45' W 095°17'0 0.0
2014-Mar-28 16:29N 29°45' W 095°17'0 0.0
2014-Mar-28 15:32N 29°45' W 095°17'0 0.0
2014-Mar-28 14:32N 29°45' W 095°17'0 0.0
2014-Mar-27 22:08N 29°45' W 095°17'0 0.0
2014-Mar-27 21:32N 29°45' W 095°17'0 0.0
2014-Mar-27 20:32N 29°45' W 095°17'0 0.0
2014-Mar-27 19:32N 29°45' W 095°17'0 0.0
2014-Mar-27 18:32N 29°45' W 095°17'0 0.0
2014-Mar-27 17:32N 29°45' W 095°17'0 0.0
2014-Mar-27 16:32N 29°45' W 095°17'0 0.0
2014-Mar-27 15:32N 29°45' W 095°17'0 0.0
2014-Mar-27 14:32N 29°45' W 095°17'0 0.0
2014-Mar-27 13:32N 29°45' W 095°17'0 0.0
2014-Mar-27 12:26N 29°45' W 095°17'0 0.0
2014-Mar-27 10:26N 29°45' W 095°17'3 3.4
2014-Mar-27 09:33N 29°43' W 095°15'4 4.3
2014-Mar-27 08:33N 29°45' W 095°10'0 0.0
2014-Mar-27 07:31N 29°45' W 095°10'0 0.0
2014-Mar-27 06:31N 29°45' W 095°10'0 0.0
2014-Mar-27 05:31N 29°45' W 095°10'0 0.0
2014-Mar-27 04:31N 29°45' W 095°10'0 0.0
2014-Mar-27 03:31N 29°45' W 095°10'0 0.0
2014-Mar-27 02:31N 29°45' W 095°10'0 0.0
2014-Mar-27 01:31N 29°45' W 095°10'0 0.0
2014-Mar-27 00:31N 29°45' W 095°10'0 0.0
2014-Mar-26 23:31N 29°45' W 095°10'0 0.0
2014-Mar-26 20:31N 29°45' W 095°10'0 0.0
2014-Mar-26 19:31N 29°45' W 095°10'0 0.0
2014-Mar-26 17:31N 29°45' W 095°10'0 0.0
2014-Mar-26 16:31N 29°45' W 095°10'0 0.0
2014-Mar-26 15:31N 29°45' W 095°10'0 0.0
2014-Mar-26 14:31N 29°45' W 095°10'0 0.0
2014-Mar-26 13:31N 29°45' W 095°10'0 0.0
2014-Mar-26 12:31N 29°45' W 095°10'0 0.0
2014-Mar-26 11:31N 29°45' W 095°10'0 0.0
2014-Mar-26 10:31N 29°45' W 095°10'0 0.0
2014-Mar-26 09:31N 29°45' W 095°10'0 0.0
2014-Mar-26 08:31N 29°45' W 095°10'0 0.0
2014-Mar-26 07:31N 29°45' W 095°10'0 0.0
2014-Mar-26 00:31N 29°45' W 095°10'0 0.0
2014-Mar-25 23:31N 29°45' W 095°10'0 0.0
2014-Mar-25 22:31N 29°45' W 095°10'0 0.0
2014-Mar-25 21:31N 29°45' W 095°10'0 0.0
2014-Mar-25 20:25N 29°45' W 095°10'0 0.0
2014-Mar-25 19:31N 29°45' W 095°10'0 0.0
2014-Mar-25 17:31N 29°45' W 095°10'0 0.0
2014-Mar-25 16:31N 29°45' W 095°10'0 0.0
2014-Mar-25 15:31N 29°45' W 095°10'0 0.0
2014-Mar-25 14:31N 29°45' W 095°10'0 0.0
2014-Mar-25 13:31N 29°45' W 095°10'0 0.0
2014-Mar-25 12:31N 29°45' W 095°10'0 0.0
2014-Mar-25 11:31N 29°45' W 095°10'0 0.0
2014-Mar-25 10:31N 29°45' W 095°10'0 0.0
2014-Mar-25 09:31N 29°45' W 095°10'0 0.0
2014-Mar-25 08:31N 29°45' W 095°10'0 0.0
2014-Mar-25 07:28N 29°45' W 095°10'0 0.0
2014-Mar-25 06:31N 29°45' W 095°10'0 0.0
2014-Mar-25 05:31N 29°45' W 095°10'0 0.0
2014-Mar-25 04:31N 29°45' W 095°10'0 0.0
2014-Mar-25 03:31N 29°45' W 095°10'0 0.0
2014-Mar-25 02:31N 29°45' W 095°10'0 0.0
2014-Mar-25 01:31N 29°45' W 095°10'0 0.0
2014-Mar-24 17:01N 29°45' W 095°10'0 0.0
2014-Mar-22 20:31N 29°45' W 095°10'0 0.0
2014-Mar-22 20:22N 29°45' W 095°10'0 0.0
2014-Mar-22 17:31N 29°45' W 095°10'0 0.0
2014-Mar-22 14:31N 29°45' W 095°10'0 0.0
2014-Mar-22 13:28N 29°45' W 095°10'0 0.0
2014-Mar-22 12:28N 29°45' W 095°10'0 0.0
2014-Mar-22 11:04N 29°45' W 095°10'0 0.0
2014-Mar-22 06:16N 29°45' W 095°10'0 0.0
2014-Mar-22 05:28N 29°45' W 095°10'0 0.0
2014-Mar-22 04:25N 29°45' W 095°10'0 0.0
2014-Mar-22 03:28N 29°45' W 095°10'0 0.0
2014-Mar-22 02:28N 29°45' W 095°10'0 0.0
2014-Mar-22 01:31N 29°45' W 095°10'0 0.0
2014-Mar-22 00:31N 29°45' W 095°10'0 0.0
2014-Mar-21 23:31N 29°45' W 095°10'0 0.0
2014-Mar-21 22:31N 29°45' W 095°10'0 0.0
2014-Mar-21 21:31N 29°45' W 095°10'0 0.0
2014-Mar-21 20:25N 29°45' W 095°10'0 0.0
2014-Mar-21 19:33N 29°45' W 095°10'0 0.0
2014-Mar-21 18:24N 29°45' W 095°10'0 0.0
2014-Mar-21 17:32N 29°45' W 095°10'0 0.0
2014-Mar-21 16:33N 29°45' W 095°10'0 0.0
2014-Mar-21 15:30N 29°45' W 095°10'0 0.0
2014-Mar-21 14:33N 29°45' W 095°10'2 1.7
2014-Mar-21 13:33N 29°44' W 095°08'4 4.2
2014-Mar-21 12:33N 29°44' W 095°04'6 6.2
2014-Mar-21 11:33N 29°40' W 094°59'1010.1
2014-Mar-21 10:33N 29°31' W 094°53'  

Dump ship's entire track history

sailing weather and tide predictions

Bright Ocean — HOGQ — position and weather